Moline, Ohio
Current Conditions -  °F | °C
As of 10:53 PM on Sunday 21 Dec 2014 (Local Time) from KTDZ Reporting Station
Haze Haze  
Wind Chill: 16°   Ceiling: Unl
Heat Index: 25°   Visibility: 6mi
Dew Point: 20°   Wind: 8mph
Humidity: 81%   Direction: 110°ESE
Pressure: 30.21"   Gusts: NA
Location:  41.5666°N, 83.5031°W
Report Text: KTDZ 220353Z AUTO 11007KT 6SM HZ CLR M04/M07 A3021 RMK AO2 SLP236 T10391067 TSNO
Loading
Personal Weather Stations






























Interactive Weather Map New forecast layout! Learn more

10-Day Weather Forecast

Advertisements
Track Severe Weather on mobile